PWSweather.com
Personal Weather Stations
Station Observations
KCTHAMDEN
Dunbar Hill, Hamden, CT 06514

Dunbar HillHamden, CT 06514

Lat: 41.365437, Lon: -72.956532

Elevation: 200

Station Type: Davis Vantage Pro2+

Latest ConditionsUpdated 4:45:01 AM EDT Sunday, Sep 22, 2019
Currently Today's Max Today's Min Today's Average
Temperature 53.7°F12.1°C 57.3°F14.1°C 53.7°F12.1°C 55.2°F12.9°C
Dew Point 52.3°F11.3°C 55.0°F12.8°C 52.2°F11.2°C 53.4°F11.9°C
Winds Calm Calm Calm -Calm - - Calm Calm
Wind Gusts -- -- - -
Humidity 95% 95% 92% 93%
Pressure 30.17 in1021.7 mb 30.19 in1022.4 mb 30.16 in1021.3 mb -
Hour Temp Dew Point Humidity Winds Wind Gusts Pressure Precip Precip Rate Daily Precip Total
04:45 AM 53.7°F12.1°C 52.3°F11.3°C 95% Calm Calm -- 30.17 in1021.7 mb - 0.00 in0.0 mm 0.00 in0.0 mm
04:30 AM 53.8°F12.1°C 52.4°F11.3°C 95% Calm Calm -- 30.17 in1021.7 mb - 0.00 in0.0 mm 0.00 in0.0 mm
04:15 AM 53.9°F12.2°C 52.2°F11.2°C 94% Calm Calm -- 30.17 in1021.7 mb - 0.00 in0.0 mm 0.00 in0.0 mm
04:00 AM 54.1°F12.3°C 52.4°F11.3°C 94% Calm Calm -- 30.17 in1021.7 mb - 0.00 in0.0 mm 0.00 in0.0 mm
03:45 AM 54.3°F12.4°C 52.6°F11.4°C 94% Calm Calm -- 30.16 in1021.3 mb - 0.00 in0.0 mm 0.00 in0.0 mm
03:30 AM 54.4°F12.4°C 52.7°F11.5°C 94% Calm Calm -- 30.17 in1021.7 mb - 0.00 in0.0 mm 0.00 in0.0 mm
03:15 AM 54.7°F12.6°C 53.0°F11.7°C 94% Calm Calm -- 30.17 in1021.7 mb - 0.00 in0.0 mm 0.00 in0.0 mm
03:00 AM 54.8°F12.7°C 53.1°F11.7°C 94% Calm Calm -- 30.17 in1021.7 mb - 0.00 in0.0 mm 0.00 in0.0 mm
02:45 AM 54.9°F12.7°C 53.2°F11.8°C 94% Calm Calm -- 30.16 in1021.3 mb - 0.00 in0.0 mm 0.00 in0.0 mm
02:30 AM 55.1°F12.8°C 53.4°F11.9°C 94% Calm Calm -- 30.17 in1021.7 mb - 0.00 in0.0 mm 0.00 in0.0 mm
02:15 AM 55.2°F12.9°C 53.5°F11.9°C 94% Calm Calm -- 30.17 in1021.7 mb - 0.00 in0.0 mm 0.00 in0.0 mm
02:00 AM 55.4°F13.0°C 53.7°F12.1°C 94% Calm Calm -- 30.17 in1021.7 mb - 0.00 in0.0 mm 0.00 in0.0 mm
01:45 AM 55.4°F13.0°C 53.4°F11.9°C 93% Calm Calm -- 30.18 in1022.0 mb - 0.00 in0.0 mm 0.00 in0.0 mm
01:30 AM 55.6°F13.1°C 53.6°F12.0°C 93% Calm Calm -- 30.18 in1022.0 mb - 0.00 in0.0 mm 0.00 in0.0 mm
01:15 AM 55.8°F13.2°C 53.8°F12.1°C 93% Calm Calm -- 30.18 in1022.0 mb - 0.00 in0.0 mm 0.00 in0.0 mm
01:00 AM 56.0°F13.3°C 53.7°F12.1°C 92% Calm Calm -- 30.18 in1022.0 mb - 0.00 in0.0 mm 0.00 in0.0 mm
12:45 AM 56.3°F13.5°C 54.0°F12.2°C 92% Calm Calm -- 30.18 in1022.0 mb - 0.00 in0.0 mm 0.00 in0.0 mm
12:30 AM 56.6°F13.7°C 54.3°F12.4°C 92% Calm Calm -- 30.19 in1022.4 mb - 0.00 in0.0 mm 0.00 in0.0 mm
12:15 AM 57.0°F13.9°C 54.7°F12.6°C 92% Calm Calm -- 30.18 in1022.0 mb - 0.00 in0.0 mm 0.00 in0.0 mm
12:00 AM 57.3°F14.1°C 55.0°F12.8°C 92% Calm Calm -- 30.18 in1022.0 mb - 0.00 in0.0 mm 0.00 in0.0 mm